createdAt,value
2019-01-18T00:04:36.748Z,0.444336
2019-01-18T00:09:59.867Z,0.434265
2019-01-18T00:15:27.030Z,0.49469
2019-01-18T00:20:50.639Z,0.555115
2019-01-18T00:26:14.138Z,0.484619
2019-01-18T00:31:37.246Z,0.524902
2019-01-18T00:37:01.510Z,0.555115
2019-01-18T00:42:24.905Z,0.555115
2019-01-18T00:47:48.609Z,0.585327
2019-01-18T00:53:12.318Z,0.514832
2019-01-18T00:58:36.041Z,0.434265
2019-01-18T01:04:00.717Z,0.383911
2019-01-18T01:09:26.251Z,0.303345
2019-01-18T01:14:51.641Z,0.303345
2019-01-18T01:20:14.782Z,0.414124
2019-01-18T01:25:40.315Z,0.434265
2019-01-18T01:31:05.529Z,0.434265
2019-01-18T01:36:28.473Z,0.454407
2019-01-18T01:41:52.265Z,0.414124
2019-01-18T01:47:20.255Z,0.404053
2019-01-18T01:52:44.550Z,0.333557
2019-01-18T01:58:08.472Z,0.232849
2019-01-18T02:03:32.856Z,0.132141
2019-01-18T02:08:57.327Z,0.051575
2019-01-18T02:14:24.723Z,-0.028992
2019-01-18T02:19:48.718Z,-0.119629
2019-01-18T02:25:12.231Z,-0.270691
2019-01-18T02:30:35.922Z,-0.371399
2019-01-18T02:36:00.494Z,-0.38147
2019-01-18T02:41:24.286Z,-0.492249
2019-01-18T02:46:50.746Z,-0.472107
2019-01-18T02:52:15.212Z,-0.492249
2019-01-18T02:57:39.728Z,-0.391541
2019-01-18T03:03:02.841Z,-0.76416
2019-01-18T03:08:25.709Z,-0.925293
2019-01-18T03:13:49.745Z,-0.945435
2019-01-18T03:19:15.058Z,-1.197205
2019-01-18T03:24:38.946Z,-0.945435
2019-01-18T03:30:03.704Z,-1.146851
2019-01-18T03:35:28.410Z,-1.046143
2019-01-18T03:40:51.463Z,-1.166992
2019-01-18T03:46:16.485Z,-1.469116
2019-01-18T03:51:40.357Z,-1.982727
2019-01-18T03:57:04.214Z,-2.184143
2019-01-18T04:02:27.185Z,-2.294922
2019-01-18T04:07:50.837Z,-1.952515
2019-01-18T04:13:16.480Z,-1.559753
2019-01-18T04:18:40.192Z,-1.277771
2019-01-18T04:24:04.498Z,-1.247559
2019-01-18T04:29:27.844Z,-1.408691
2019-01-18T04:34:53.624Z,-1.499329
2019-01-18T04:40:16.684Z,-1.610107
2019-01-18T04:45:40.792Z,-1.710815
2019-01-18T04:51:05.063Z,-1.89209
2019-01-18T04:56:31.868Z,-1.851807
2019-01-18T05:02:00.890Z,-1.861877
2019-01-18T05:07:26.214Z,-1.821594
2019-01-18T05:12:52.730Z,-1.932373
2019-01-18T05:18:18.195Z,-1.962585
2019-01-18T05:23:44.668Z,-2.063293
2019-01-18T05:29:08.079Z,-2.103577
2019-01-18T05:34:32.860Z,-1.962585
2019-01-18T05:39:55.933Z,-2.103577
2019-01-18T05:45:18.983Z,-2.073364
2019-01-18T05:50:42.086Z,-2.043152
2019-01-18T05:56:15.256Z,-2.063293
2019-01-18T06:01:48.068Z,-2.033081
2019-01-18T06:07:11.109Z,-2.063293
2019-01-18T06:12:34.126Z,-1.982727
2019-01-18T06:17:57.325Z,-1.962585
2019-01-18T06:23:20.436Z,-1.952515
2019-01-18T06:28:43.666Z,-2.002869
2019-01-18T06:34:06.827Z,-2.063293
2019-01-18T06:39:30.014Z,-2.113647
2019-01-18T06:44:52.848Z,-2.113647
2019-01-18T06:50:15.707Z,-2.063293
2019-01-18T06:55:38.494Z,-2.043152
2019-01-18T07:01:01.528Z,-1.982727
2019-01-18T07:06:24.209Z,-1.89209
2019-01-18T07:11:47.206Z,-1.801453
2019-01-18T07:17:10.141Z,-1.89209
2019-01-18T07:22:43.949Z,-1.922302
2019-01-18T07:28:06.935Z,-1.982727
2019-01-18T07:33:29.726Z,-2.012939
2019-01-18T07:38:52.769Z,-2.083435
2019-01-18T07:44:16.659Z,-2.103577
2019-01-18T07:49:40.383Z,-2.103577
2019-01-18T07:55:03.795Z,-2.103577
2019-01-18T08:00:26.653Z,-2.244568
2019-01-18T08:05:49.471Z,-2.375488
2019-01-18T08:11:14.538Z,-2.375488
2019-01-18T08:16:37.756Z,-2.325134
2019-01-18T08:22:00.648Z,-2.425842
2019-01-18T08:27:23.754Z,-2.506409
2019-01-18T08:32:47.526Z,-2.365417
2019-01-18T08:38:13.074Z,-2.294922
2019-01-18T08:43:36.089Z,-2.133789
2019-01-18T08:48:58.826Z,-2.012939
2019-01-18T08:54:23.696Z,-1.821594
2019-01-18T08:59:47.622Z,-1.64032
2019-01-18T09:05:10.729Z,-1.499329
2019-01-18T09:10:35.252Z,-1.38855
2019-01-18T09:15:58.336Z,-1.207275
2019-01-18T09:21:21.331Z,-1.026001
2019-01-18T09:26:44.277Z,-0.744019
2019-01-18T09:32:07.014Z,-0.592957
2019-01-18T09:37:31.925Z,-0.411682
2019-01-18T09:42:54.779Z,-0.240479
2019-01-18T09:48:18.020Z,-0.018921
2019-01-18T09:53:41.030Z,0.081787
2019-01-18T09:59:05.530Z,0.313416
2019-01-18T10:04:28.289Z,0.524902
2019-01-18T10:09:50.996Z,0.675964
2019-01-18T10:15:13.693Z,0.716248
2019-01-18T10:20:36.902Z,1.078796
2019-01-18T10:26:00.502Z,0.947876
2019-01-18T10:31:24.440Z,1.179504
2019-01-18T10:36:48.002Z,0.927734
2019-01-18T10:42:10.749Z,1.320496
2019-01-18T10:47:33.537Z,1.75354
2019-01-18T10:53:01.296Z,1.683044
2019-01-18T10:58:24.011Z,2.106018
2019-01-18T11:03:46.993Z,2.287292
2019-01-18T11:09:10.077Z,2.226868
2019-01-18T11:14:33.267Z,2.498779
2019-01-18T11:19:55.990Z,2.559204
2019-01-18T11:25:19.373Z,2.790833
2019-01-18T11:30:44.243Z,2.841187
2019-01-18T11:36:07.819Z,2.498779
2019-01-18T11:41:30.740Z,2.619629
2019-01-18T11:46:54.001Z,2.871399
2019-01-18T11:52:17.692Z,2.800903
2019-01-18T11:57:40.510Z,2.770691
2019-01-18T12:03:03.572Z,3.203735
2019-01-18T12:08:26.532Z,3.052673
2019-01-18T12:13:49.563Z,3.334656
2019-01-18T12:19:12.015Z,3.445435
2019-01-18T12:24:35.369Z,3.526001
2019-01-18T12:29:58.134Z,3.717346
2019-01-18T12:35:21.718Z,4.079895
2019-01-18T12:40:45.266Z,4.533081
2019-01-18T12:46:10.901Z,4.492798
2019-01-18T12:51:35.041Z,4.573364
2019-01-18T12:56:57.817Z,3.999329
2019-01-18T13:02:20.570Z,3.818054
2019-01-18T13:07:45.267Z,4.14032
2019-01-18T13:13:08.222Z,4.492798
2019-01-18T13:18:30.879Z,4.210815
2019-01-18T13:23:53.691Z,4.341736
2019-01-18T13:29:17.232Z,4.180603
2019-01-18T13:34:40.033Z,4.170532
2019-01-18T13:40:06.199Z,3.948975
2019-01-18T13:45:27.727Z,3.797913
2019-01-18T13:50:50.564Z,3.616638
2019-01-18T13:56:13.274Z,3.314514
2019-01-18T14:01:36.044Z,3.374939
2019-01-18T14:07:00.576Z,3.26416
2019-01-18T14:12:24.046Z,3.173523
2019-01-18T14:17:47.451Z,3.13324
2019-01-18T14:23:11.002Z,3.072815
2019-01-18T14:28:33.820Z,3.022461
2019-01-18T14:33:56.583Z,3.01239
2019-01-18T14:39:19.443Z,3.103027
2019-01-18T14:44:43.199Z,3.01239
2019-01-18T14:50:05.969Z,2.871399
2019-01-18T14:55:29.816Z,2.76062
2019-01-18T15:00:52.526Z,2.609558
2019-01-18T15:06:16.195Z,2.438354
2019-01-18T15:11:39.753Z,2.25708
2019-01-18T15:17:03.246Z,2.106018
2019-01-18T15:22:28.339Z,2.00531
2019-01-18T15:27:51.102Z,1.834106
2019-01-18T15:33:14.865Z,1.652832
2019-01-18T15:38:37.682Z,1.38092
2019-01-18T15:44:00.421Z,1.12915
2019-01-18T15:49:23.612Z,1.078796
2019-01-18T15:54:47.029Z,0.87738
2019-01-18T16:00:11.384Z,0.62561
2019-01-18T16:05:34.102Z,0.484619
2019-01-18T16:10:57.495Z,0.081787
2019-01-18T16:16:20.176Z,-0.26062
2019-01-18T16:21:47.331Z,-0.582886
2019-01-18T16:27:10.421Z,-0.653381
2019-01-18T16:32:40.526Z,-0.713806
2019-01-18T16:38:03.418Z,-0.744019
2019-01-18T16:43:27.047Z,-0.925293
2019-01-18T16:48:51.290Z,-0.965576
2019-01-18T16:54:14.067Z,-0.985718
2019-01-18T16:59:36.911Z,-1.096497
2019-01-18T17:05:00.686Z,-1.197205
2019-01-18T17:10:23.354Z,-1.277771
2019-01-18T17:15:46.977Z,-1.277771
2019-01-18T17:21:09.722Z,-1.318054
2019-01-18T17:26:33.325Z,-1.650391
2019-01-18T17:31:57.722Z,-1.64032
2019-01-18T17:37:20.934Z,-1.489258
2019-01-18T17:42:44.038Z,-1.408691
2019-01-18T17:48:07.006Z,-1.620178
2019-01-18T17:53:29.132Z,-1.459045
2019-01-18T17:58:52.856Z,-1.438904
2019-01-18T18:04:15.728Z,-1.38855
2019-01-18T18:09:39.056Z,-1.459045
2019-01-18T18:15:02.213Z,-1.610107
2019-01-18T18:20:25.701Z,-1.89209
2019-01-18T18:25:50.174Z,-1.831665
2019-01-18T18:31:13.887Z,-1.751099
2019-01-18T18:36:48.354Z,-1.700745
2019-01-18T18:42:20.772Z,-1.89209
2019-01-18T18:47:43.611Z,-2.063293
2019-01-18T18:53:07.465Z,-1.801453
2019-01-18T18:58:42.482Z,-1.77124
2019-01-18T19:04:06.393Z,-1.922302
2019-01-18T19:09:31.195Z,-1.922302
2019-01-18T19:14:54.640Z,-1.861877
2019-01-18T19:20:19.571Z,-1.932373
2019-01-18T19:25:42.291Z,-1.932373
2019-01-18T19:31:16.437Z,-2.184143
2019-01-18T19:36:40.038Z,-2.435913
2019-01-18T19:42:02.794Z,-2.254639
2019-01-18T19:47:27.705Z,-2.194214
2019-01-18T19:52:50.475Z,-2.184143
2019-01-18T19:58:14.115Z,-2.254639
2019-01-18T20:03:36.996Z,-2.325134
2019-01-18T20:08:59.669Z,-2.214355
2019-01-18T20:14:22.462Z,-2.164001
2019-01-18T20:19:45.145Z,-2.164001
2019-01-18T20:25:07.855Z,-2.294922
2019-01-18T20:30:30.821Z,-2.39563
2019-01-18T20:35:54.670Z,-2.476196
2019-01-18T20:41:17.451Z,-2.39563
2019-01-18T20:46:41.496Z,-2.315063
2019-01-18T20:52:03.793Z,-2.315063
2019-01-18T20:57:26.642Z,-2.294922
2019-01-18T21:02:49.499Z,-2.345276
2019-01-18T21:08:13.507Z,-2.264709
2019-01-18T21:13:36.850Z,-2.184143
2019-01-18T21:18:59.923Z,-2.164001
2019-01-18T21:24:23.397Z,-2.184143
2019-01-18T21:29:46.084Z,-2.244568
2019-01-18T21:35:10.020Z,-2.375488
2019-01-18T21:40:33.378Z,-2.375488
2019-01-18T21:45:56.054Z,-2.39563
2019-01-18T21:51:21.440Z,-2.315063
2019-01-18T21:56:47.630Z,-2.52655
2019-01-18T22:02:11.904Z,-2.607117
2019-01-18T22:07:36.962Z,-2.607117
2019-01-18T22:13:00.374Z,-2.52655
2019-01-18T22:18:24.287Z,-2.496338
2019-01-18T22:23:46.090Z,-2.476196
2019-01-18T22:29:09.601Z,-2.456055
2019-01-18T22:34:34.895Z,-2.476196
2019-01-18T22:39:57.990Z,-2.546692
2019-01-18T22:45:22.441Z,-2.556763
2019-01-18T22:50:46.952Z,-2.405701
2019-01-18T22:56:10.863Z,-2.576904
2019-01-18T23:01:33.797Z,-2.586975
2019-01-18T23:06:57.319Z,-2.496338
2019-01-18T23:12:21.777Z,-2.607117
2019-01-18T23:17:45.884Z,-2.717896
2019-01-18T23:23:09.346Z,-2.758179
2019-01-18T23:28:33.779Z,-2.637329
2019-01-18T23:33:57.494Z,-2.617188
2019-01-18T23:39:22.754Z,-2.707825
2019-01-18T23:44:47.066Z,-2.586975
2019-01-18T23:50:19.902Z,-2.506409
2019-01-18T23:55:42.638Z,-2.476196
